createdAt,value
2019-01-11T00:00:37.935Z,0
2019-01-11T00:01:18.288Z,0
2019-01-11T00:01:58.683Z,0
2019-01-11T00:02:39.143Z,0
2019-01-11T00:03:19.514Z,0
2019-01-11T00:03:59.914Z,0
2019-01-11T00:04:40.320Z,0
2019-01-11T00:05:20.676Z,0
2019-01-11T00:06:01.072Z,0
2019-01-11T00:06:41.506Z,0
2019-01-11T00:07:21.967Z,0
2019-01-11T00:08:02.357Z,0
2019-01-11T00:08:42.704Z,0
2019-01-11T00:09:23.050Z,0
2019-01-11T00:10:03.453Z,0
2019-01-11T00:10:43.912Z,0
2019-01-11T00:11:24.257Z,0
2019-01-11T00:12:04.664Z,0
2019-01-11T00:12:45.045Z,0
2019-01-11T00:13:25.430Z,0
2019-01-11T00:14:05.823Z,0
2019-01-11T00:14:46.175Z,0
2019-01-11T00:15:26.647Z,0
2019-01-11T00:16:07.091Z,0
2019-01-11T00:16:47.485Z,0
2019-01-11T00:17:27.868Z,0
2019-01-11T00:18:08.199Z,0
2019-01-11T00:18:48.628Z,0
2019-01-11T00:19:29.101Z,0
2019-01-11T00:20:09.479Z,0
2019-01-11T00:20:49.834Z,0
2019-01-11T00:21:30.219Z,0
2019-01-11T00:22:10.611Z,0
2019-01-11T00:22:51.015Z,0
2019-01-11T00:23:31.351Z,0
2019-01-11T00:24:11.757Z,0
2019-01-11T00:24:52.196Z,0
2019-01-11T00:25:32.619Z,0
2019-01-11T00:26:13.031Z,0
2019-01-11T00:26:53.392Z,0
2019-01-11T00:27:33.810Z,0
2019-01-11T00:28:14.150Z,0
2019-01-11T00:28:54.461Z,0
2019-01-11T00:29:34.849Z,0
2019-01-11T00:30:15.345Z,0
2019-01-11T00:30:55.706Z,0
2019-01-11T00:31:36.090Z,0
2019-01-11T00:32:16.601Z,0
2019-01-11T00:32:56.924Z,0
2019-01-11T00:33:37.402Z,0
2019-01-11T00:34:17.836Z,0
2019-01-11T00:34:58.122Z,0
2019-01-11T00:35:38.523Z,0
2019-01-11T00:36:18.936Z,0
2019-01-11T00:36:59.283Z,0
2019-01-11T00:37:39.690Z,0
2019-01-11T00:38:20.131Z,0
2019-01-11T00:39:00.540Z,0
2019-01-11T00:39:40.838Z,0
2019-01-11T00:40:21.236Z,0
2019-01-11T00:41:01.631Z,0
2019-01-11T00:41:42.067Z,0
2019-01-11T00:42:22.429Z,0
2019-01-11T00:43:02.780Z,0
2019-01-11T00:43:43.174Z,0
2019-01-11T00:44:23.586Z,0
2019-01-11T00:45:04.018Z,0
2019-01-11T00:45:44.328Z,0
2019-01-11T00:46:24.757Z,0
2019-01-11T00:47:05.083Z,0
2019-01-11T00:47:45.586Z,0
2019-01-11T00:48:25.960Z,0
2019-01-11T00:49:06.336Z,0
2019-01-11T00:49:46.723Z,0
2019-01-11T00:50:27.162Z,0
2019-01-11T00:51:07.520Z,0
2019-01-11T00:51:47.914Z,0
2019-01-11T00:52:28.410Z,0
2019-01-11T00:53:08.687Z,0
2019-01-11T00:53:49.182Z,0
2019-01-11T00:54:29.546Z,0
2019-01-11T00:55:09.982Z,0
2019-01-11T00:55:50.260Z,0
2019-01-11T00:56:30.807Z,0
2019-01-11T00:57:11.097Z,0
2019-01-11T00:57:51.564Z,0
2019-01-11T00:58:31.853Z,0
2019-01-11T00:59:12.349Z,0
2019-01-11T00:59:52.704Z,0
2019-01-11T01:00:33.082Z,0
2019-01-11T01:01:13.519Z,0
2019-01-11T01:01:53.881Z,0
2019-01-11T01:02:34.308Z,0
2019-01-11T01:03:14.702Z,0
2019-01-11T01:03:55.128Z,0
2019-01-11T01:04:35.504Z,0
2019-01-11T01:05:15.895Z,0
2019-01-11T01:05:56.250Z,0
2019-01-11T01:06:36.644Z,0
2019-01-11T01:07:17.118Z,0
2019-01-11T01:07:57.505Z,0
2019-01-11T01:08:37.901Z,0
2019-01-11T01:09:18.321Z,0
2019-01-11T01:09:58.728Z,0
2019-01-11T01:10:39.077Z,0
2019-01-11T01:11:19.439Z,0
2019-01-11T01:11:59.871Z,0
2019-01-11T01:12:40.298Z,0
2019-01-11T01:13:20.689Z,0
2019-01-11T01:14:01.044Z,0
2019-01-11T01:14:41.462Z,0
2019-01-11T01:15:21.934Z,0
2019-01-11T01:16:02.199Z,0
2019-01-11T01:16:42.664Z,0
2019-01-11T01:17:23.112Z,0
2019-01-11T01:18:03.543Z,0
2019-01-11T01:18:43.934Z,0
2019-01-11T01:19:24.218Z,0
2019-01-11T01:20:04.591Z,0
2019-01-11T01:20:44.998Z,0
2019-01-11T01:21:25.368Z,0
2019-01-11T01:22:05.786Z,0
2019-01-11T01:22:46.163Z,0
2019-01-11T01:23:26.600Z,0
2019-01-11T01:24:06.941Z,0
2019-01-11T01:24:47.346Z,0
2019-01-11T01:25:28.082Z,0
2019-01-11T01:26:08.158Z,0
2019-01-11T01:26:48.453Z,0
2019-01-11T01:27:28.833Z,0
2019-01-11T01:28:09.246Z,0
2019-01-11T01:28:49.637Z,0
2019-01-11T01:29:30.053Z,0
2019-01-11T01:30:10.450Z,0
2019-01-11T01:30:50.879Z,0
2019-01-11T01:31:31.263Z,0
2019-01-11T01:32:11.744Z,0
2019-01-11T01:32:52.040Z,0
2019-01-11T01:33:32.450Z,0
2019-01-11T01:34:12.821Z,0
2019-01-11T01:34:53.205Z,0
2019-01-11T01:35:33.628Z,0
2019-01-11T01:36:13.956Z,0
2019-01-11T01:36:54.345Z,0
2019-01-11T01:37:34.764Z,0
2019-01-11T01:38:15.200Z,0
2019-01-11T01:38:55.603Z,0
2019-01-11T01:39:35.901Z,0
2019-01-11T01:40:16.299Z,0
2019-01-11T01:40:56.733Z,0
2019-01-11T01:41:37.159Z,0
2019-01-11T01:42:17.527Z,0
2019-01-11T01:42:58.009Z,0
2019-01-11T01:43:38.379Z,0
2019-01-11T01:44:18.750Z,0
2019-01-11T01:44:59.202Z,0
2019-01-11T01:45:39.557Z,0
2019-01-11T01:46:19.967Z,0
2019-01-11T01:47:00.402Z,0
2019-01-11T01:47:40.774Z,0
2019-01-11T01:48:21.118Z,0
2019-01-11T01:49:01.475Z,0
2019-01-11T01:49:41.918Z,0
2019-01-11T01:50:22.384Z,0
2019-01-11T01:51:02.781Z,0
2019-01-11T01:51:43.185Z,0
2019-01-11T01:52:23.574Z,0
2019-01-11T01:53:03.981Z,0
2019-01-11T01:53:44.319Z,0
2019-01-11T01:54:24.731Z,0
2019-01-11T01:55:05.178Z,0
2019-01-11T01:55:45.572Z,0
2019-01-11T01:56:25.955Z,0
2019-01-11T01:57:06.314Z,0
2019-01-11T01:57:46.665Z,0
2019-01-11T01:58:27.097Z,0
2019-01-11T01:59:07.501Z,0
2019-01-11T01:59:47.929Z,0
2019-01-11T02:00:28.290Z,0
2019-01-11T02:01:08.680Z,0
2019-01-11T02:01:49.102Z,0
2019-01-11T02:02:29.506Z,0
2019-01-11T02:03:10.013Z,0
2019-01-11T02:03:50.315Z,0
2019-01-11T02:04:30.737Z,0
2019-01-11T02:05:11.116Z,0
2019-01-11T02:05:51.627Z,0
2019-01-11T02:06:32.083Z,0
2019-01-11T02:07:12.479Z,0
2019-01-11T02:07:52.938Z,0
2019-01-11T02:08:33.304Z,0
2019-01-11T02:09:13.702Z,0
2019-01-11T02:09:54.142Z,0
2019-01-11T02:10:34.530Z,0
2019-01-11T02:11:15.016Z,0
2019-01-11T02:11:55.390Z,0
2019-01-11T02:12:35.704Z,0
2019-01-11T02:13:16.077Z,0
2019-01-11T02:13:56.475Z,0
2019-01-11T02:14:36.811Z,0
2019-01-11T02:15:17.258Z,0
2019-01-11T02:15:57.682Z,0
2019-01-11T02:16:38.030Z,0
2019-01-11T02:17:18.465Z,0
2019-01-11T02:17:58.884Z,0
2019-01-11T02:18:39.327Z,0
2019-01-11T02:19:19.584Z,0
2019-01-11T02:20:00.008Z,0
2019-01-11T02:20:40.466Z,0
2019-01-11T02:21:20.875Z,0
2019-01-11T02:22:01.288Z,0
2019-01-11T02:22:41.611Z,0
2019-01-11T02:23:22.056Z,0
2019-01-11T02:24:02.495Z,0
2019-01-11T02:24:42.839Z,0
2019-01-11T02:25:23.246Z,0
2019-01-11T02:26:03.683Z,0
2019-01-11T02:26:44.048Z,0
2019-01-11T02:27:24.385Z,0
2019-01-11T02:28:04.858Z,0
2019-01-11T02:28:45.259Z,0
2019-01-11T02:29:25.645Z,0
2019-01-11T02:30:06.115Z,0
2019-01-11T02:30:46.500Z,0
2019-01-11T02:31:26.950Z,0
2019-01-11T02:32:07.323Z,0
2019-01-11T02:32:52.338Z,0
2019-01-11T02:33:28.051Z,0
2019-01-11T02:34:08.506Z,0
2019-01-11T02:34:48.897Z,0
2019-01-11T02:35:29.348Z,0
2019-01-11T02:36:09.886Z,0
2019-01-11T02:36:50.302Z,0
2019-01-11T02:37:30.684Z,0
2019-01-11T02:38:11.081Z,0
2019-01-11T02:38:51.596Z,0
2019-01-11T02:39:31.973Z,0
2019-01-11T02:40:12.379Z,0
2019-01-11T02:40:52.719Z,0
2019-01-11T02:41:33.139Z,0
2019-01-11T02:42:13.492Z,0
2019-01-11T02:42:53.915Z,0
2019-01-11T02:43:34.301Z,0
2019-01-11T02:44:14.743Z,0
2019-01-11T02:44:55.184Z,0
2019-01-11T02:45:35.583Z,0
2019-01-11T02:46:16.089Z,0
2019-01-11T02:46:56.489Z,0
2019-01-11T02:47:36.835Z,0
2019-01-11T02:48:17.228Z,0
2019-01-11T02:48:57.664Z,0
2019-01-11T02:49:40.140Z,0
2019-01-11T02:50:18.483Z,0
2019-01-11T02:50:58.877Z,0
2019-01-11T02:51:39.256Z,0
2019-01-11T02:52:19.847Z,0
2019-01-11T02:53:00.191Z,0
2019-01-11T02:53:40.620Z,0
2019-01-11T02:54:20.931Z,0
2019-01-11T02:55:01.411Z,0
2019-01-11T02:55:41.760Z,0
2019-01-11T02:56:22.179Z,0
2019-01-11T02:57:02.690Z,0
2019-01-11T02:57:43.036Z,0
2019-01-11T02:58:23.511Z,0
2019-01-11T02:59:03.919Z,0
2019-01-11T02:59:44.316Z,0
2019-01-11T03:00:24.779Z,0
2019-01-11T03:01:05.173Z,0
2019-01-11T03:01:45.626Z,0
2019-01-11T03:02:25.966Z,0
2019-01-11T03:03:06.346Z,0
2019-01-11T03:03:46.788Z,0
2019-01-11T03:04:27.209Z,0
2019-01-11T03:05:07.653Z,0
2019-01-11T03:05:48.006Z,0
2019-01-11T03:06:28.483Z,0
2019-01-11T03:07:08.860Z,0
2019-01-11T03:07:49.258Z,0
2019-01-11T03:08:29.628Z,0
2019-01-11T03:09:09.954Z,0
2019-01-11T03:09:50.419Z,0
2019-01-11T03:10:30.817Z,0
2019-01-11T03:11:11.215Z,0
2019-01-11T03:11:51.612Z,0
2019-01-11T03:12:32.045Z,0
2019-01-11T03:13:12.411Z,0
2019-01-11T03:13:52.765Z,0
2019-01-11T03:14:33.225Z,0
2019-01-11T03:15:13.628Z,0
2019-01-11T03:15:54.001Z,0
2019-01-11T03:16:34.398Z,0
2019-01-11T03:17:14.845Z,0
2019-01-11T03:17:55.215Z,0
2019-01-11T03:18:35.527Z,0
2019-01-11T03:19:15.966Z,0
2019-01-11T03:19:56.354Z,0
2019-01-11T03:20:36.856Z,0
2019-01-11T03:21:17.151Z,0
2019-01-11T03:21:57.541Z,0
2019-01-11T03:22:37.951Z,0
2019-01-11T03:23:18.342Z,0
2019-01-11T03:23:58.694Z,0
2019-01-11T03:24:39.541Z,0
2019-01-11T03:25:23.881Z,0
2019-01-11T03:26:04.589Z,0
2019-01-11T03:26:45.063Z,0
2019-01-11T03:27:25.434Z,0
2019-01-11T03:28:06.107Z,0
2019-01-11T03:28:46.741Z,0
2019-01-11T03:29:27.358Z,0
2019-01-11T03:30:08.433Z,0
2019-01-11T03:30:48.997Z,0
2019-01-11T03:31:29.694Z,0
2019-01-11T03:32:10.251Z,0
2019-01-11T03:32:50.730Z,0
2019-01-11T03:33:31.469Z,0
2019-01-11T03:34:11.900Z,0
2019-01-11T03:34:52.634Z,0
2019-01-11T03:35:34.447Z,0
2019-01-11T03:36:15.053Z,0
2019-01-11T03:36:55.683Z,0
2019-01-11T03:37:36.047Z,0
2019-01-11T03:38:18.107Z,0
2019-01-11T03:38:58.471Z,0
2019-01-11T03:39:41.265Z,0
2019-01-11T03:40:25.342Z,0
2019-01-11T03:41:05.815Z,0
2019-01-11T03:41:46.446Z,0
2019-01-11T03:42:27.049Z,0
2019-01-11T03:43:08.436Z,0
2019-01-11T03:43:48.921Z,0
2019-01-11T03:44:31.990Z,0
2019-01-11T03:45:13.456Z,0
2019-01-11T03:45:54.011Z,0
2019-01-11T03:46:34.553Z,0
2019-01-11T03:47:15.189Z,0
2019-01-11T03:47:56.156Z,0
2019-01-11T03:48:37.579Z,0
2019-01-11T03:49:18.117Z,0
2019-01-11T03:49:58.673Z,0
2019-01-11T03:50:39.145Z,0
2019-01-11T03:51:19.724Z,0
2019-01-11T03:52:00.069Z,0
2019-01-11T03:52:41.045Z,0
2019-01-11T03:53:21.711Z,0
2019-01-11T03:54:02.300Z,0
2019-01-11T03:54:43.187Z,0
2019-01-11T03:55:29.862Z,0
2019-01-11T03:56:11.927Z,0
2019-01-11T03:56:58.357Z,0
2019-01-11T03:57:39.610Z,0
2019-01-11T03:58:20.969Z,0
2019-01-11T03:59:02.150Z,0
2019-01-11T03:59:43.897Z,0
2019-01-11T04:00:26.827Z,0
2019-01-11T04:01:09.731Z,0
2019-01-11T04:01:50.824Z,0
2019-01-11T04:02:31.680Z,0
2019-01-11T04:03:12.568Z,0
2019-01-11T04:03:53.197Z,0
2019-01-11T04:04:35.241Z,0
2019-01-11T04:05:16.027Z,0
2019-01-11T04:05:57.621Z,0
2019-01-11T04:06:38.711Z,0
2019-01-11T04:07:19.976Z,0
2019-01-11T04:08:00.681Z,0
2019-01-11T04:08:42.807Z,0
2019-01-11T04:09:23.288Z,0
2019-01-11T04:10:04.070Z,0
2019-01-11T04:10:45.903Z,0
2019-01-11T04:11:32.760Z,0
2019-01-11T04:12:15.161Z,0
2019-01-11T04:12:57.931Z,0
2019-01-11T04:15:45.717Z,0
2019-01-11T04:18:28.925Z,0
2019-01-11T04:19:27.999Z,0
2019-01-11T04:20:21.376Z,0
2019-01-11T04:21:23.775Z,0
2019-01-11T05:08:02.924Z,0
2019-01-11T05:08:57.960Z,0
2019-01-11T05:09:52.002Z,0
2019-01-11T05:10:44.530Z,0
2019-01-11T05:11:38.685Z,0
2019-01-11T05:12:30.730Z,0
2019-01-11T05:13:23.429Z,0
2019-01-11T05:14:15.759Z,0
2019-01-11T05:15:11.468Z,0
2019-01-11T05:16:06.943Z,0
2019-01-11T05:17:00.445Z,0
2019-01-11T05:17:54.534Z,0
2019-01-11T05:18:46.980Z,0
2019-01-11T05:19:39.458Z,0
2019-01-11T05:20:34.290Z,0
2019-01-11T05:21:35.411Z,0
2019-01-11T05:22:29.338Z,0
2019-01-11T05:23:24.320Z,0
2019-01-11T05:24:18.673Z,0
2019-01-11T05:25:13.299Z,0
2019-01-11T05:26:07.216Z,0
2019-01-11T05:27:03.109Z,0
2019-01-11T05:27:55.861Z,0
2019-01-11T05:28:48.604Z,0
2019-01-11T05:29:44.015Z,0
2019-01-11T05:30:47.340Z,0
2019-01-11T05:31:41.558Z,0
2019-01-11T05:32:35.624Z,0
2019-01-11T05:33:29.518Z,0
2019-01-11T05:34:26.044Z,0
2019-01-11T05:35:23.758Z,0
2019-01-11T05:36:18.842Z,0
2019-01-11T05:37:12.948Z,0
2019-01-11T05:38:08.090Z,0
2019-01-11T05:39:06.579Z,0
2019-01-11T05:40:00.376Z,0
2019-01-11T05:41:03.157Z,0
2019-01-11T05:41:59.847Z,0
2019-01-11T05:42:54.167Z,0
2019-01-11T05:43:46.849Z,0
2019-01-11T05:44:40.304Z,0
2019-01-11T05:45:38.242Z,0
2019-01-11T05:46:32.281Z,0
2019-01-11T05:47:26.161Z,0
2019-01-11T05:50:08.862Z,0
2019-01-11T05:51:18.958Z,0
2019-01-11T05:52:13.630Z,0
2019-01-11T05:53:15.536Z,0
2019-01-11T05:54:12.320Z,0
2019-01-11T05:59:01.382Z,0
2019-01-11T05:59:57.778Z,0
2019-01-11T06:00:53.930Z,0
2019-01-11T06:01:48.694Z,0
2019-01-11T06:04:59.936Z,0
2019-01-11T06:05:54.815Z,0
2019-01-11T06:06:50.107Z,0
2019-01-11T06:07:45.529Z,0
2019-01-11T06:08:38.929Z,0
2019-01-11T06:15:42.622Z,0
2019-01-11T06:16:41.411Z,0
2019-01-11T06:17:38.091Z,0
2019-01-11T06:18:37.899Z,0
2019-01-11T06:19:39.907Z,0
2019-01-11T06:20:52.646Z,0
2019-01-11T06:21:50.447Z,0
2019-01-11T06:22:52.037Z,0
2019-01-11T06:25:42.113Z,0
2019-01-11T06:26:37.415Z,0
2019-01-11T06:27:31.412Z,0
2019-01-11T06:28:24.553Z,0
2019-01-11T06:29:17.897Z,0
2019-01-11T06:30:14.594Z,0
2019-01-11T06:31:09.394Z,0
2019-01-11T06:32:03.162Z,0
2019-01-11T06:32:58.527Z,0
2019-01-11T06:33:55.225Z,0
2019-01-11T06:34:54.656Z,0
2019-01-11T06:35:51.412Z,0
2019-01-11T06:36:45.288Z,0
2019-01-11T06:42:39.412Z,0
2019-01-11T06:43:35.582Z,0
2019-01-11T06:44:38.657Z,0
2019-01-11T06:45:30.200Z,0
2019-01-11T06:46:27.503Z,0
2019-01-11T06:47:22.856Z,0
2019-01-11T06:48:19.242Z,0
2019-01-11T06:49:14.681Z,0
2019-01-11T06:50:06.839Z,0
2019-01-11T06:51:28.671Z,0
2019-01-11T06:56:34.538Z,0
2019-01-11T06:57:37.587Z,0
2019-01-11T07:00:32.902Z,0
2019-01-11T07:01:53.364Z,0
2019-01-11T07:02:47.920Z,0
2019-01-11T07:03:58.974Z,0
2019-01-11T07:04:53.355Z,0
2019-01-11T07:07:32.003Z,0
2019-01-11T07:08:31.064Z,0
2019-01-11T07:09:28.749Z,0
2019-01-11T07:11:46.415Z,0
2019-01-11T07:12:45.521Z,0
2019-01-11T07:13:42.922Z,0
2019-01-11T07:14:40.245Z,0
2019-01-11T07:15:42.560Z,0
2019-01-11T07:20:23.671Z,0
2019-01-11T07:21:30.713Z,0
2019-01-11T07:22:41.596Z,0
2019-01-11T07:26:16.532Z,4
2019-01-11T07:27:13.934Z,0
2019-01-11T07:28:13.601Z,4
2019-01-11T07:34:33.601Z,4
2019-01-11T07:35:33.101Z,4
2019-01-11T07:36:25.735Z,4
2019-01-11T07:37:21.935Z,8
2019-01-11T07:38:19.568Z,8
2019-01-11T07:39:14.810Z,8
2019-01-11T07:40:11.822Z,8
2019-01-11T07:41:12.021Z,8
2019-01-11T07:42:06.697Z,8
2019-01-11T07:43:00.639Z,12
2019-01-11T07:43:56.427Z,12
2019-01-11T07:44:55.354Z,12
2019-01-11T07:45:55.393Z,12
2019-01-11T07:46:53.457Z,12
2019-01-11T07:47:52.982Z,12
2019-01-11T07:48:48.857Z,12
2019-01-11T07:49:57.634Z,12
2019-01-11T07:51:13.192Z,12
2019-01-11T07:52:17.889Z,16
2019-01-11T07:57:08.430Z,16
2019-01-11T07:58:03.130Z,16
2019-01-11T07:58:59.964Z,16
2019-01-11T07:59:59.197Z,16
2019-01-11T08:03:18.368Z,20
2019-01-11T08:04:18.753Z,20
2019-01-11T08:05:16.189Z,20
2019-01-11T08:06:17.453Z,24
2019-01-11T08:07:18.592Z,24
2019-01-11T08:08:18.896Z,28
2019-01-11T08:09:19.893Z,24
2019-01-11T08:15:06.504Z,36
2019-01-11T08:16:01.922Z,40
2019-01-11T08:16:59.187Z,36
2019-01-11T08:18:01.652Z,40
2019-01-11T08:19:02.167Z,40
2019-01-11T08:20:01.623Z,40
2019-01-11T08:20:58.266Z,44
2019-01-11T08:23:45.335Z,48
2019-01-11T08:24:39.966Z,52
2019-01-11T08:25:39.203Z,52
2019-01-11T08:27:02.748Z,52
2019-01-11T08:28:04.814Z,56
2019-01-11T08:35:03.963Z,72
2019-01-11T08:36:07.400Z,68
2019-01-11T08:37:15.544Z,68
2019-01-11T08:38:21.959Z,64
2019-01-11T08:39:32.229Z,80
2019-01-11T08:40:28.041Z,72
2019-01-11T08:41:25.643Z,64
2019-01-11T08:42:25.057Z,64
2019-01-11T08:43:28.572Z,76
2019-01-11T08:44:28.434Z,68
2019-01-11T08:45:24.154Z,80
2019-01-11T08:46:32.103Z,76
2019-01-11T08:47:34.556Z,76
2019-01-11T08:49:03.743Z,76
2019-01-11T08:50:17.062Z,80
2019-01-11T08:56:55.929Z,76
2019-01-11T09:53:39.431Z,196
2019-01-11T09:56:37.462Z,160
2019-01-11T09:57:35.420Z,164
2019-01-11T09:58:33.651Z,160
2019-01-11T10:03:31.002Z,152
2019-01-11T10:04:27.567Z,152
2019-01-11T10:05:37.977Z,148
2019-01-11T10:06:33.243Z,140
2019-01-11T10:07:34.420Z,164
2019-01-11T10:09:42.634Z,156
2019-01-11T10:10:48.970Z,148
2019-01-11T10:11:44.967Z,152
2019-01-11T10:12:46.658Z,160
2019-01-11T10:13:41.605Z,172
2019-01-11T10:14:35.081Z,168
2019-01-11T10:15:28.482Z,188
2019-01-11T10:16:23.727Z,176
2019-01-11T10:17:33.384Z,160
2019-01-11T10:24:03.794Z,180
2019-01-11T10:24:57.638Z,196
2019-01-11T10:25:51.102Z,184
2019-01-11T10:26:46.260Z,152
2019-01-11T10:27:40.714Z,144
2019-01-11T10:28:33.957Z,136
2019-01-11T10:29:35.963Z,132
2019-01-11T10:30:32.428Z,124
2019-01-11T11:11:41.949Z,212
2019-01-11T11:12:42.558Z,188
2019-01-11T11:16:18.353Z,140
2019-01-11T13:21:01.684Z,320
2019-01-11T13:27:45.590Z,304
2019-01-11T13:28:41.485Z,328
2019-01-11T13:33:12.020Z,308
2019-01-11T13:34:24.725Z,280
2019-01-11T13:42:42.983Z,248
2019-01-11T13:45:02.702Z,208
2019-01-11T13:45:43.710Z,200
2019-01-11T13:46:24.243Z,204
2019-01-11T13:47:07.224Z,200
2019-01-11T13:47:56.278Z,208
2019-01-11T13:48:37.437Z,216
2019-01-11T13:49:19.670Z,240
2019-01-11T13:50:00.812Z,224
2019-01-11T13:50:41.354Z,260
2019-01-11T13:51:22.119Z,264
2019-01-11T13:52:07.087Z,288
2019-01-11T13:52:44.107Z,288
2019-01-11T13:53:26.126Z,272
2019-01-11T13:54:07.703Z,276
2019-01-11T13:54:47.898Z,276
2019-01-11T13:55:29.893Z,288
2019-01-11T13:56:10.701Z,284
2019-01-11T13:56:51.838Z,256
2019-01-11T13:57:33.186Z,244
2019-01-11T13:58:13.559Z,212
2019-01-11T13:58:54.964Z,188
2019-01-11T13:59:41.359Z,188
2019-01-11T14:00:16.014Z,152
2019-01-11T14:00:57.020Z,152
2019-01-11T14:01:38.167Z,156
2019-01-11T14:02:18.694Z,180
2019-01-11T14:02:58.982Z,232
2019-01-11T14:03:47.412Z,276
2019-01-11T14:04:28.146Z,336
2019-01-11T14:05:09.360Z,348
2019-01-11T14:05:49.936Z,340
2019-01-11T14:06:32.096Z,304
2019-01-11T14:07:13.564Z,308
2019-01-11T14:07:54.223Z,296
2019-01-11T14:08:34.604Z,272
2019-01-11T14:09:15.207Z,272
2019-01-11T14:09:55.569Z,224
2019-01-11T14:10:36.128Z,192
2019-01-11T14:11:19.318Z,204
2019-01-11T14:11:59.747Z,200
2019-01-11T14:12:40.111Z,200
2019-01-11T14:13:20.920Z,200
2019-01-11T14:14:01.596Z,184
2019-01-11T14:14:41.944Z,172
2019-01-11T14:15:23.858Z,156
2019-01-11T14:16:04.303Z,152
2019-01-11T14:16:44.732Z,160
2019-01-11T14:17:27.465Z,164
2019-01-11T14:18:16.667Z,168
2019-01-11T14:18:57.052Z,180
2019-01-11T14:19:38.111Z,200
2019-01-11T14:20:20.597Z,208
2019-01-11T14:21:06.156Z,204
2019-01-11T14:23:48.184Z,164
2019-01-11T14:29:38.643Z,72
2019-01-11T14:33:48.231Z,124
2019-01-11T14:34:41.409Z,120
2019-01-11T14:35:33.689Z,136
2019-01-11T14:36:42.526Z,188
2019-01-11T14:39:42.366Z,212
2019-01-11T14:40:44.105Z,176
2019-01-11T14:43:52.589Z,224
2019-01-11T14:44:50.692Z,204
2019-01-11T14:50:35.790Z,104
2019-01-11T14:51:28.994Z,108
2019-01-11T14:52:26.442Z,112
2019-01-11T14:53:38.978Z,80
2019-01-11T14:54:42.875Z,60
2019-01-11T14:55:39.695Z,52
2019-01-11T14:57:49.149Z,52
2019-01-11T14:58:49.776Z,60
2019-01-11T15:05:54.906Z,76
2019-01-11T15:06:56.216Z,64
2019-01-11T15:08:05.545Z,48
2019-01-11T15:09:05.494Z,40
2019-01-11T15:18:48.600Z,84
2019-01-11T15:27:34.100Z,56
2019-01-11T15:48:05.256Z,12
2019-01-11T15:48:58.364Z,12
2019-01-11T15:49:52.597Z,8
2019-01-11T15:50:49.410Z,12
2019-01-11T15:51:43.266Z,8
2019-01-11T16:07:58.225Z,4
2019-01-11T16:19:50.633Z,0
2019-01-11T16:20:44.282Z,0
2019-01-11T16:21:40.219Z,0
2019-01-11T16:22:39.467Z,0
2019-01-11T16:23:27.198Z,0
2019-01-11T16:24:31.524Z,0
2019-01-11T16:27:26.705Z,0
2019-01-11T16:28:24.264Z,0
2019-01-11T16:29:36.844Z,0
2019-01-11T16:30:33.229Z,0
2019-01-11T16:31:26.312Z,0
2019-01-11T16:32:19.227Z,0
2019-01-11T17:11:43.492Z,0
2019-01-11T17:12:41.808Z,0
2019-01-11T17:13:40.594Z,0
2019-01-11T17:14:32.367Z,0
2019-01-11T17:15:25.890Z,0
2019-01-11T17:16:21.833Z,0
2019-01-11T17:17:16.513Z,0
2019-01-11T17:18:10.864Z,0
2019-01-11T17:19:05.343Z,0
2019-01-11T17:19:59.370Z,0
2019-01-11T17:20:52.370Z,0
2019-01-11T17:21:47.490Z,0
2019-01-11T17:22:39.372Z,0
2019-01-11T17:23:32.833Z,0
2019-01-11T17:24:30.256Z,0
2019-01-11T17:25:24.647Z,0
2019-01-11T17:26:18.670Z,0
2019-01-11T17:27:10.813Z,0
2019-01-11T17:28:06.910Z,0
2019-01-11T17:29:04.595Z,0
2019-01-11T17:30:01.885Z,0
2019-01-11T17:31:05.845Z,0
2019-01-11T17:32:00.189Z,0
2019-01-11T17:32:57.680Z,0
2019-01-11T17:33:53.724Z,0
2019-01-11T17:34:46.695Z,0
2019-01-11T17:35:43.384Z,0
2019-01-11T17:36:38.470Z,0
2019-01-11T17:37:32.070Z,0
2019-01-11T17:38:24.891Z,0
2019-01-11T17:39:17.061Z,0
2019-01-11T17:40:12.889Z,0
2019-01-11T17:41:10.800Z,0
2019-01-11T17:42:07.193Z,0
2019-01-11T17:43:02.572Z,0
2019-01-11T17:44:00.452Z,0
2019-01-11T17:44:54.767Z,0
2019-01-11T17:45:47.316Z,0
2019-01-11T17:46:47.471Z,0
2019-01-11T17:47:44.707Z,0
2019-01-11T17:48:39.122Z,0
2019-01-11T17:49:37.285Z,0
2019-01-11T17:50:33.024Z,0
2019-01-11T17:51:25.481Z,0
2019-01-11T17:52:18.948Z,0
2019-01-11T17:53:14.817Z,0
2019-01-11T17:54:08.380Z,0
2019-01-11T17:55:11.013Z,0
2019-01-11T17:56:06.915Z,0
2019-01-11T17:57:01.787Z,0
2019-01-11T17:57:55.209Z,0
2019-01-11T17:58:50.170Z,0
2019-01-11T18:01:51.636Z,0
2019-01-11T18:02:45.156Z,0
2019-01-11T18:03:43.763Z,0
2019-01-11T18:04:39.251Z,0
2019-01-11T18:05:31.857Z,0
2019-01-11T18:06:27.228Z,0
2019-01-11T18:07:20.094Z,0
2019-01-11T18:08:15.638Z,0
2019-01-11T18:09:09.514Z,0
2019-01-11T18:10:05.003Z,0
2019-01-11T18:10:59.639Z,0
2019-01-11T18:11:52.447Z,0
2019-01-11T18:12:50.084Z,0
2019-01-11T18:13:44.361Z,0
2019-01-11T18:14:39.094Z,0
2019-01-11T18:15:39.610Z,0
2019-01-11T18:16:35.375Z,0
2019-01-11T18:18:26.548Z,0
2019-01-11T18:19:21.855Z,0
2019-01-11T18:20:16.290Z,0
2019-01-11T18:21:08.395Z,0
2019-01-11T18:22:02.295Z,0
2019-01-11T18:22:54.509Z,0
2019-01-11T18:23:47.690Z,0
2019-01-11T18:24:43.759Z,0
2019-01-11T18:25:41.145Z,0
2019-01-11T18:26:39.465Z,0
2019-01-11T18:27:34.981Z,0
2019-01-11T18:28:37.414Z,0
2019-01-11T18:38:35.663Z,0
2019-01-11T18:39:19.199Z,0
2019-01-11T18:40:00.621Z,0
2019-01-11T18:40:42.762Z,0
2019-01-11T18:41:24.093Z,0
2019-01-11T18:42:06.340Z,0
2019-01-11T18:42:51.379Z,0
2019-01-11T18:43:35.263Z,0
2019-01-11T18:44:19.755Z,0
2019-01-11T18:45:01.701Z,0
2019-01-11T18:45:48.883Z,0
2019-01-11T18:46:33.341Z,0
2019-01-11T18:47:14.202Z,0
2019-01-11T18:47:54.648Z,0
2019-01-11T18:48:37.089Z,0
2019-01-11T18:49:22.121Z,0
2019-01-11T18:50:02.190Z,0
2019-01-11T18:50:44.951Z,0
2019-01-11T18:51:26.262Z,0
2019-01-11T18:52:08.320Z,0
2019-01-11T18:52:48.830Z,0
2019-01-11T18:53:31.081Z,0
2019-01-11T18:54:11.689Z,0
2019-01-11T18:54:54.461Z,0
2019-01-11T18:55:34.775Z,0
2019-01-11T18:56:19.856Z,0
2019-01-11T18:57:02.374Z,0
2019-01-11T18:57:42.657Z,0
2019-01-11T18:58:25.355Z,0
2019-01-11T18:59:10.806Z,0
2019-01-11T18:59:51.940Z,0
2019-01-11T19:00:35.907Z,0
2019-01-11T19:01:19.032Z,0
2019-01-11T19:01:59.458Z,0
2019-01-11T19:02:41.553Z,0
2019-01-11T19:03:23.108Z,0
2019-01-11T19:04:03.409Z,0
2019-01-11T19:04:45.885Z,0
2019-01-11T19:05:26.484Z,0
2019-01-11T19:06:06.734Z,0
2019-01-11T19:06:47.431Z,0
2019-01-11T19:07:27.951Z,0
2019-01-11T19:08:12.812Z,0
2019-01-11T19:08:55.218Z,0
2019-01-11T19:09:35.726Z,0
2019-01-11T19:10:16.735Z,0
2019-01-11T19:11:01.018Z,0
2019-01-11T19:11:44.922Z,0
2019-01-11T19:50:51.261Z,0
2019-01-11T19:51:32.087Z,0
2019-01-11T19:52:13.481Z,0
2019-01-11T19:52:55.242Z,0
2019-01-11T19:53:38.733Z,0
2019-01-11T19:54:19.294Z,0
2019-01-11T19:55:03.075Z,0
2019-01-11T19:55:45.778Z,0
2019-01-11T19:56:29.479Z,0
2019-01-11T19:57:11.019Z,0
2019-01-11T19:58:01.959Z,0
2019-01-11T19:58:42.522Z,0
2019-01-11T19:59:23.162Z,0
2019-01-11T20:00:07.458Z,0
2019-01-11T20:00:52.545Z,0
2019-01-11T20:01:35.703Z,0
2019-01-11T20:02:16.345Z,0
2019-01-11T20:03:15.656Z,0
2019-01-11T20:04:00.038Z,0
2019-01-11T20:04:44.075Z,0
2019-01-11T20:05:44.899Z,0
2019-01-11T20:06:30.897Z,0
2019-01-11T20:07:11.311Z,0
2019-01-11T20:07:51.716Z,0
2019-01-11T20:08:51.532Z,0
2019-01-11T20:09:34.054Z,0
2019-01-11T20:10:28.924Z,0
2019-01-11T20:11:13.117Z,0
2019-01-11T20:11:57.005Z,0
2019-01-11T20:12:37.401Z,0
2019-01-11T20:13:22.087Z,0
2019-01-11T20:14:03.456Z,0
2019-01-11T20:14:45.755Z,0
2019-01-11T20:15:27.905Z,0
2019-01-11T20:16:11.201Z,0
2019-01-11T20:16:53.878Z,0
2019-01-11T20:17:37.644Z,0
2019-01-11T21:01:41.780Z,0
2019-01-11T21:02:20.535Z,0
2019-01-11T21:03:08.796Z,0
2019-01-11T21:03:48.980Z,0
2019-01-11T21:04:29.495Z,0
2019-01-11T21:05:11.855Z,0
2019-01-11T21:05:52.242Z,0
2019-01-11T21:06:34.965Z,0
2019-01-11T21:07:15.629Z,0
2019-01-11T21:08:00.012Z,0
2019-01-11T21:08:41.866Z,0
2019-01-11T21:09:21.837Z,0
2019-01-11T21:10:02.541Z,0
2019-01-11T21:10:46.643Z,0
2019-01-11T21:11:27.997Z,0
2019-01-11T21:12:10.162Z,0
2019-01-11T21:12:50.717Z,0
2019-01-11T21:13:31.379Z,0
2019-01-11T21:14:14.901Z,0
2019-01-11T21:14:56.079Z,0
2019-01-11T21:15:41.112Z,0
2019-01-11T21:16:22.688Z,0
2019-01-11T21:17:03.025Z,0
2019-01-11T21:17:43.892Z,0
2019-01-11T21:18:30.964Z,0
2019-01-11T21:19:13.603Z,0
2019-01-11T21:19:57.552Z,0
2019-01-11T21:20:40.459Z,0
2019-01-11T21:21:20.985Z,0
2019-01-11T21:22:02.517Z,0
2019-01-11T21:22:43.128Z,0
2019-01-11T21:23:23.191Z,0
2019-01-11T21:24:03.615Z,0
2019-01-11T21:24:44.586Z,0
2019-01-11T21:25:24.881Z,0